CLASSIFICATION TEAM 5.5 km climb
home
    idracetypedateroutekmelevation (m)Pos.PETTORALEFamily NameNamescoregenderteamNAZIONALITACATEGORIAPOSIZIONECATTimeReal
    time
    Average
    km/hr
    RW5.5 km climbTT19/10/2018unic5,5095,0011AljarallahOmar200MRWSaudiOpen Male1/1800:09:2400:09:2435,00
    RW5.5 km climbTT19/10/2018unic5,5095,00244AlKhuwaiterRayan199MRWSaudiOpen Male2/1800:09:5700:09:5733,10
    RW5.5 km climbTT19/10/2018unic5,5095,0033Bin FayizAbdallah198MRWSaudiOpen Male3/1800:10:0700:10:0732,50
    RW5.5 km climbTT19/10/2018unic5,5095,00459BallMartin197MRWBritishMaster Male1/1200:10:1200:10:1232,30
    RW5.5 km climbTT19/10/2018unic5,5095,005110BakerJosh196MRWBritishOpen Male4/1800:10:1300:10:1332,20
    RW5.5 km climbTT19/10/2018unic5,5095,00618PoetzschPatrick195MRWGermanVeteran Male1/2100:10:1400:10:1432,20
    RW5.5 km climbTT19/10/2018unic5,5095,00772DercoBrandon194MRWAmericanVeteran Male2/2100:10:1900:10:1931,90
    RW5.5 km climbTT19/10/2018unic5,5095,00817PinanoAlfie193MRWFilipinoOpen Male5/1800:10:3500:10:3531,10
    RW5.5 km climbTT19/10/2018unic5,5095,00980ArafahAshraf192MRWSaudiOpen Male6/1800:10:4900:10:4930,40
    RW5.5 km climbTT19/10/2018unic5,5095,0010104AlMutairiSultan191MRWSaudiOpen Male7/1800:10:5700:10:5730,10
    RW5.5 km climbTT19/10/2018unic5,5095,001193ForeroYezith190MRWColombianVeteran Male3/2100:10:5900:10:5930,00
    RW5.5 km climbTT19/10/2018unic5,5095,001290KutbiMohammed189MRWSaudiOpen Male8/1800:10:5900:10:5930,00
    RW5.5 km climbTT19/10/2018unic5,5095,001312McLeanJohn188MRWBritishVeteran Male4/2100:11:0000:11:0029,90
    RW5.5 km climbTT19/10/2018unic5,5095,001436JohnsonDavid187MRWAmericanOpen Male9/1800:11:0700:11:0729,60
    RW5.5 km climbTT19/10/2018unic5,5095,001540JazaeriYamen186MRWSyrianOpen Male10/1800:11:0900:11:0929,50
    RW5.5 km climbTT19/10/2018unic5,5095,00168MorrisDavid185MRWBritishVeteran Male5/2100:11:1000:11:1029,50
    RW5.5 km climbTT19/10/2018unic5,5095,00176Dela RosaMichael184MRWFilipinoOpen Male11/1800:11:1100:11:1129,40
    RW5.5 km climbTT19/10/2018unic5,5095,001824GankemaJeroen183MRWNetherlandsVeteran Male6/2100:11:3100:11:3128,60
    RW5.5 km climbTT19/10/2018unic5,5095,00199WaightScott182MRWNew ZealandVeteran Male7/2100:11:3900:11:3928,30
    RW5.5 km climbTT19/10/2018unic5,5095,00204KubaJiri181MRWGermanSenior Male1/300:11:4100:11:4128,20
    RW5.5 km climbTT19/10/2018unic5,5095,002134SumonodJorge180MRWFilipinoOpen Male12/1800:11:5200:11:5227,80
    RW5.5 km climbTT19/10/2018unic5,5095,002215AlBabtainAnas179MRWSaudiVeteran Male8/2100:11:5400:11:5427,70
    RW5.5 km climbTT19/10/2018unic5,5095,002331SungaJaime178MRWFilipinoMaster Male2/1200:12:0200:12:0227,40
    RW5.5 km climbTT19/10/2018unic5,5095,002438TubangJulieto177MRWFilipinoMaster Male3/1200:12:0900:12:0927,10
    RW5.5 km climbTT19/10/2018unic5,5095,002523CalagoErwin176MRWFilipinoVeteran Male9/2100:12:1000:12:1027,10
    RW5.5 km climbTT19/10/2018unic5,5095,002677SkarupaTomasz175MRWItalianVeteran Male10/2100:12:1400:12:1426,90
    RW5.5 km climbTT19/10/2018unic5,5095,0027111AlvesCarlos174MRWAustralianVeteran Male11/2100:12:1900:12:1926,70
    RW5.5 km climbTT19/10/2018unic5,5095,002867DeansPhilip173MRWBritishMaster Male4/1200:12:2800:12:2826,40
    RW5.5 km climbTT19/10/2018unic5,5095,002946CaceresMarvin172MRWFilipinoVeteran Male12/2100:12:3100:12:3126,30
    RW5.5 km climbTT19/10/2018unic5,5095,003026KootPaul171MRWNetherlandsOpen Male13/1800:12:3300:12:3326,20
    RW5.5 km climbTT19/10/2018unic5,5095,003169DetomalBernard170MRWFilipinoVeteran Male13/2100:12:3300:12:3326,20
    RW5.5 km climbTT19/10/2018unic5,5095,0032201AsiriAliMRWSaudiOpen Male14/1800:12:3900:12:3926,00
    RW5.5 km climbTT19/10/2018unic5,5095,003319SantosMarvin169MRWFilipinoOpen Male15/1800:12:4300:12:4325,90
    RW5.5 km climbTT19/10/2018unic5,5095,003420TabbalFloren Pal168MRWFilipinoOpen Male16/1800:12:5200:12:5225,60
    RW5.5 km climbTT19/10/2018unic5,5095,0035150AppleyardStephen167MRWBritishMaster Male5/1200:12:5400:12:5425,50
    RW5.5 km climbTT19/10/2018unic5,5095,003645PelletierJason166MRWAmericanVeteran Male14/2100:12:5400:12:5425,50
    RW5.5 km climbTT19/10/2018unic5,5095,003737LandoEdoardo165MRWItalianSenior Male2/300:12:5500:12:5525,50
    RW5.5 km climbTT19/10/2018unic5,5095,003882ManicdaoAriel164MRWFilipinoVeteran Male15/2100:13:1600:13:1624,80
    RW5.5 km climbTT19/10/2018unic5,5095,003932OcaEdilberto163MRWFilipinoMaster Male6/1200:13:1800:13:1824,70
    RW5.5 km climbTT19/10/2018unic5,5095,004041TolentinoWilliam162MRWFilipinoMaster Male7/1200:13:2100:13:2124,70
    RW5.5 km climbTT19/10/2018unic5,5095,004139AltavasJose Cortes161MRWFilipinoVeteran Male16/2100:13:2400:13:2424,60
    RW5.5 km climbTT19/10/2018unic5,5095,0042200SantosRurik IanMRWFilipinoVeteran Male17/2100:13:4000:13:4024,10
    RW5.5 km climbTT19/10/2018unic5,5095,004397MartinezDavid160MRWSpanishVeteran Male18/2100:13:4200:13:4224,00
    RW5.5 km climbTT19/10/2018unic5,5095,0044108EleosidaTeddy159MRWFilipinoMaster Male8/1200:13:4700:13:4723,90
    RW5.5 km climbTT19/10/2018unic5,5095,0045202KurekIsmailMRWBritishOpen Male17/1800:14:2000:14:2023,00
    RW5.5 km climbTT19/10/2018unic5,5095,0046117CordialJun158MRWFilipinoVeteran Male19/2100:14:2300:14:2322,90
    RW5.5 km climbTT19/10/2018unic5,5095,004783SchaeferColin157MRWAmericanOpen Male18/1800:14:2500:14:2522,80
    RW5.5 km climbTT19/10/2018unic5,5095,004881JavierJessie156MRWFilipinoMaster Male9/1200:14:2600:14:2622,80
    RW5.5 km climbTT19/10/2018unic5,5095,0049100AraujoMaria200FRWItalianMaster Female1/200:14:2800:14:2822,70
    RW5.5 km climbTT19/10/2018unic5,5095,005025MendozaHans200MRWFilipinoJunior Male100:14:2900:14:2922,70
    RW5.5 km climbTT19/10/2018unic5,5095,005171MendozaRichard155MRWFilipinoVeteran Male20/2100:15:1600:15:1621,60
    RW5.5 km climbTT19/10/2018unic5,5095,005228EllaBenedict154MRWFilipinoMaster Male10/1200:15:1600:15:1621,60
    RW5.5 km climbTT19/10/2018unic5,5095,005368PetkovskiDragan153MRWCroatiaMaster Male11/1200:16:1100:16:1120,30
    RW5.5 km climbTT19/10/2018unic5,5095,0054102LandoFederica200FRWItalianJunior Female1/200:16:1600:16:1620,20
    RW5.5 km climbTT19/10/2018unic5,5095,005562CrepaldiGustavo152MRWBrazilianVeteran Male21/2100:16:1700:16:1720,20
    RW5.5 km climbTT19/10/2018unic5,5095,005694MahfouzTalal151MRWFrenchSenior Male3/300:16:5800:16:5819,40
    RW5.5 km climbTT19/10/2018unic5,5095,005788AbreuMarcus150MRWBrazilianMaster Male12/1200:17:0600:17:0619,20
    RW5.5 km climbTT19/10/2018unic5,5095,0058101LandoAlexandra199FRWItalianJunior Female2/200:19:0400:19:0417,30
    RW5.5 km climbTT19/10/2018unic5,5095,005992MendozaLani199FRWFilipinoMaster Female2/200:23:2900:23:2914,00
    idracetypedateroute324,50
    km
    5605
    dislivello
    59
    n
    BIDFamily NameNamescoregenderteamNationalityCategoryPos.Cat.TimeReal
    time
    Average
    km/hr
Aljarallah OmarBin Fayiz AbdallahBaker JoshArafah AshrafForero YezithMcLean JohnJohnson DavidMorris DavidDela Rosa MichaelGankema JeroenWaight ScottKuba JiriSumonod JorgeSunga JaimeCalago ErwinSkarupa TomaszAlves CarlosDeans PhilipCaceres MarvinDetomal Bernard
Tabbal Floren PalAppleyard StephenLando EdoardoOca EdilbertoTolentino WilliamAltavas Jose CortesSantos Rurik IanEleosida TeddyCordial JunSchaefer ColinJavier JessieAraujo MariaMendoza HansMendoza RichardElla BenedictPetkovski DraganLando FedericaMahfouz TalalLando Alexandra

5.5 km climb Athletes TEAM (first 200)

FIND ATHLETES races saved
find results also athletes others team
Fam.Name: Name:
rem: to insert Family name (It is simply a part of word)

FIND TEAM Races saved
You can find the result of others team
TEAM: RACE: ROUTE:
rem: to insert one team (It is simply a part of word)


home